Time;durP1;ratioP1;P1;durP2;ratioP2;P2;SDS_P1;SDS_P2;PMS_P1;PMS_P2;Temp;Humidity;BMP_temperature;BMP_pressure;BME280_temperature;BME280_humidity;BME280_pressure;Samples;Min_cycle;Max_cycle;Signal;HPM_P1;HPM_P2
2023/03/14 00:02:00;;;;;;;5.93;3.27;;;;;;;9.88;76.18;97618.56;5032061;28;20728;-79
2023/03/14 00:04:29;;;;;;;4.20;2.70;;;;;;;9.83;76.35;97607.88;5031770;28;20677;-80
2023/03/14 00:06:56;;;;;;;4.27;3.17;;;;;;;9.73;76.67;97603.28;5020971;28;20757;-79
2023/03/14 00:09:23;;;;;;;7.17;3.17;;;;;;;9.67;76.76;97596.31;5029266;28;20194;-78
2023/03/14 00:11:50;;;;;;;3.87;3.20;;;;;;;9.63;77.02;97584.53;5031232;28;20213;-79
2023/03/14 00:14:16;;;;;;;4.57;3.07;;;;;;;9.76;77.09;97586.72;5010443;28;20257;-80
2023/03/14 00:16:45;;;;;;;6.97;3.60;;;;;;;9.66;77.39;97584.81;5020144;28;20225;-78
2023/03/14 00:19:12;;;;;;;5.07;3.30;;;;;;;9.71;77.46;97590.16;5027856;28;20654;-80
2023/03/14 00:21:39;;;;;;;5.17;3.10;;;;;;;9.74;77.25;97586.19;5027928;28;20194;-80
2023/03/14 00:24:06;;;;;;;5.37;3.57;;;;;;;9.73;77.55;97580.03;5014288;28;20214;-79
2023/03/14 00:26:33;;;;;;;4.17;3.13;;;;;;;9.79;77.49;97580.03;5030803;28;20640;-80
2023/03/14 00:29:02;;;;;;;4.00;3.33;;;;;;;9.70;77.78;97571.75;5027006;28;20209;-79
2023/03/14 00:31:29;;;;;;;5.00;3.00;;;;;;;9.78;77.77;97581.09;5031710;28;20231;-78
2023/03/14 00:33:57;;;;;;;5.97;3.43;;;;;;;9.79;77.82;97570.16;5026443;28;20204;-78
2023/03/14 00:36:24;;;;;;;6.20;3.77;;;;;;;9.77;77.69;97560.78;5030660;28;20202;-78
2023/03/14 00:38:51;;;;;;;6.67;3.20;;;;;;;9.69;78.10;97556.75;5030632;28;20726;-78
2023/03/14 00:41:22;;;;;;;4.90;2.90;;;;;;;9.77;77.89;97560.78;5030792;28;20201;-79
2023/03/14 00:43:49;;;;;;;4.17;2.97;;;;;;;9.85;77.80;97570.94;5006501;28;20195;-79
2023/03/14 00:46:16;;;;;;;5.57;3.50;;;;;;;9.73;77.89;97560.50;5031895;28;20772;-79
2023/03/14 00:48:45;;;;;;;7.80;4.10;;;;;;;9.76;77.97;97549.25;5031671;28;20277;-79
2023/03/14 00:51:14;;;;;;;5.57;3.40;;;;;;;9.67;78.07;97559.69;5010735;28;20219;-79
2023/03/14 00:53:43;;;;;;;3.77;2.70;;;;;;;9.80;77.97;97544.22;5015828;28;20553;-78
2023/03/14 00:56:11;;;;;;;5.83;3.43;;;;;;;9.76;77.98;97535.09;5035626;28;20281;-79
2023/03/14 00:58:38;;;;;;;8.77;4.23;;;;;;;9.74;78.29;97522.00;5017877;28;20225;-80
2023/03/14 01:01:09;;;;;;;9.57;5.07;;;;;;;9.79;78.29;97532.72;5007676;28;20191;-79
2023/03/14 01:03:36;;;;;;;10.13;5.40;;;;;;;9.79;78.29;97524.69;5003660;28;20191;-79
2023/03/14 01:06:10;;;;;;;7.37;4.77;;;;;;;9.75;78.35;97528.16;5024732;28;20198;-78
2023/03/14 01:08:37;;;;;;;6.50;3.83;;;;;;;9.76;78.42;97525.19;5035301;28;20190;-79
2023/03/14 01:11:09;;;;;;;9.00;4.93;;;;;;;9.64;78.58;97516.63;5017700;28;20218;-80
2023/03/14 01:13:36;;;;;;;7.90;4.27;;;;;;;9.67;78.42;97506.22;5029730;28;20194;-78
2023/03/14 01:16:06;;;;;;;5.43;3.73;;;;;;;9.62;78.45;97502.72;5033769;28;20217;-79
2023/03/14 01:18:37;;;;;;;4.50;3.77;;;;;;;9.63;78.38;97501.66;5035552;28;20651;-79
2023/03/14 01:21:11;;;;;;;2.87;2.57;;;;;;;9.63;78.01;97499.78;5017219;28;20202;-78
2023/03/14 01:23:38;;;;;;;5.60;3.10;;;;;;;9.59;78.32;97488.03;5028919;28;20671;-79
2023/03/14 01:26:09;;;;;;;4.53;2.70;;;;;;;9.61;78.12;97485.88;5017304;28;20316;-78
2023/03/14 01:28:36;;;;;;;4.47;2.90;;;;;;;9.60;77.74;97494.16;5026068;28;20201;-79
2023/03/14 01:31:05;;;;;;;4.03;2.60;;;;;;;9.56;77.83;97493.91;5017391;28;20194;-78
2023/03/14 01:33:32;;;;;;;2.43;2.17;;;;;;;9.66;76.75;97493.09;5031892;28;20194;-79
2023/03/14 01:35:58;;;;;;;4.53;2.70;;;;;;;9.63;76.54;97474.91;5030759;28;20205;-79
2023/03/14 01:38:25;;;;;;;3.67;2.30;;;;;;;9.62;76.76;97476.78;5033619;28;20217;-79
2023/03/14 01:40:52;;;;;;;2.47;2.10;;;;;;;9.71;76.25;97466.38;5015234;28;20273;-79
2023/03/14 01:47:03;;;;;;;3.80;2.27;;;;;;;9.49;77.00;97476.50;5051329;28;20888;-79
2023/03/14 01:49:33;;;;;;;4.30;2.40;;;;;;;9.35;77.42;97478.88;5032821;28;20202;-78
2023/03/14 01:52:20;;;;;;;2.60;2.20;;;;;;;9.32;77.78;97473.25;5034717;28;20213;-80
2023/03/14 01:54:53;;;;;;;3.40;2.50;;;;;;;9.17;78.55;97480.16;5033052;28;20182;-78
2023/03/14 01:57:27;;;;;;;5.17;2.43;;;;;;;9.09;78.74;97482.53;5016462;28;20650;-80
2023/03/14 02:00:16;;;;;;;4.77;2.43;;;;;;;8.93;78.84;97492.34;5025261;28;20186;-79
2023/03/14 02:02:50;;;;;;;4.20;2.80;;;;;;;8.87;77.80;97495.25;5018677;28;20190;-79
2023/03/14 02:05:22;;;;;;;3.93;3.30;;;;;;;8.76;78.04;97492.56;5033310;28;20654;-78
2023/03/14 02:07:56;;;;;;;6.77;3.77;;;;;;;8.71;78.40;97491.72;5032990;28;20320;-78
2023/03/14 02:10:29;;;;;;;5.90;3.90;;;;;;;8.61;78.21;97492.47;5027091;28;20276;-78
2023/03/14 02:12:59;;;;;;;4.37;3.77;;;;;;;8.52;78.09;97486.00;5010975;28;20667;-80
2023/03/14 02:15:48;;;;;;;5.03;3.47;;;;;;;8.41;78.63;97476.31;5033332;28;20232;-78
2023/03/14 02:18:50;;;;;;;6.30;4.10;;;;;;;8.27;78.81;97483.13;5002719;28;20202;-78
2023/03/14 02:22:13;;;;;;;6.43;4.27;;;;;;;8.35;78.87;97480.81;5012712;28;20257;-78
2023/03/14 02:25:12;;;;;;;5.50;4.03;;;;;;;8.07;80.11;97485.66;5012699;28;20209;-78
2023/03/14 02:27:42;;;;;;;4.87;3.93;;;;;;;7.96;80.20;97484.78;5016625;28;20225;-78
2023/03/14 02:30:24;;;;;;;6.53;4.10;;;;;;;7.86;80.37;97490.81;5016740;28;20276;-81
2023/03/14 02:32:55;;;;;;;5.23;4.30;;;;;;;7.70;81.42;97491.72;5032504;28;20202;-78
2023/03/14 02:35:24;;;;;;;4.83;4.17;;;;;;;7.61;82.34;97501.25;5030593;28;20259;-80
2023/03/14 02:38:05;;;;;;;6.10;4.23;;;;;;;7.56;82.91;97514.50;5005547;28;20214;-78
2023/03/14 02:40:36;;;;;;;5.10;4.60;;;;;;;7.42;83.20;97537.28;5025166;28;20202;-78
2023/03/14 02:43:03;;;;;;;6.83;4.43;;;;;;;7.25;84.30;97541.88;5032132;28;20204;-78
2023/03/14 02:45:39;;;;;;;4.90;4.37;;;;;;;7.21;84.51;97533.59;5004045;28;20230;-79
2023/03/14 02:48:15;;;;;;;5.90;4.03;;;;;;;7.07;85.11;97541.16;5028381;28;20656;-80
2023/03/14 02:50:48;;;;;;;5.67;4.20;;;;;;;7.05;85.75;97539.78;5022777;28;20244;-78
2023/03/14 02:53:21;;;;;;;5.13;4.17;;;;;;;6.99;86.74;97562.91;5006629;28;20226;-79
2023/03/14 02:55:51;;;;;;;4.90;4.30;;;;;;;6.92;87.13;97583.53;5026846;28;20260;-79
2023/03/14 02:58:21;;;;;;;6.63;4.30;;;;;;;6.89;87.35;97596.56;5030687;28;20248;-79
2023/03/14 03:00:53;;;;;;;5.40;4.37;;;;;;;6.82;87.98;97604.69;5030613;28;20655;-78
2023/03/14 03:03:22;;;;;;;5.10;4.53;;;;;;;6.79;88.54;97599.06;5010396;28;20194;-79
2023/03/14 03:05:51;;;;;;;4.97;4.33;;;;;;;6.73;88.73;97589.38;5023856;28;20266;-78
2023/03/14 03:08:26;;;;;;;6.47;4.43;;;;;;;6.63;88.97;97606.00;5030663;28;20220;-78
2023/03/14 03:10:54;;;;;;;6.50;4.57;;;;;;;6.63;89.87;97606.00;5031613;28;20235;-78
2023/03/14 03:13:21;;;;;;;6.60;4.37;;;;;;;6.60;91.19;97627.78;5014443;28;20204;-78
2023/03/14 03:15:52;;;;;;;5.77;4.40;;;;;;;6.48;92.85;97619.09;5015873;28;20202;-82
2023/03/14 03:18:19;;;;;;;5.73;4.07;;;;;;;6.49;92.78;97618.81;5012462;28;20213;-80
2023/03/14 03:20:45;;;;;;;5.57;4.27;;;;;;;6.42;93.98;97620.06;5009282;28;20196;-79
2023/03/14 03:23:14;;;;;;;4.67;4.17;;;;;;;6.40;95.04;97614.16;5032109;28;20236;-78
2023/03/14 03:25:40;;;;;;;5.90;4.73;;;;;;;6.44;95.53;97623.28;5033040;28;20229;-78
2023/03/14 03:28:07;;;;;;;7.70;4.60;;;;;;;6.45;96.17;97624.88;5028741;28;20694;-79
2023/03/14 03:30:41;;;;;;;7.43;4.30;;;;;;;6.46;96.59;97627.31;5015652;28;20206;-79
2023/03/14 03:33:08;;;;;;;6.77;4.37;;;;;;;6.45;97.11;97640.84;5010357;28;20191;-80
2023/03/14 03:35:41;;;;;;;5.50;4.40;;;;;;;6.42;97.89;97657.28;5027438;28;20238;-80
2023/03/14 03:38:11;;;;;;;5.73;4.70;;;;;;;6.45;97.71;97641.66;5028974;28;20203;-78
2023/03/14 03:40:38;;;;;;;6.67;4.67;;;;;;;6.38;98.60;97642.88;5007990;28;20194;-80
2023/03/14 03:43:06;;;;;;;7.50;6.17;;;;;;;6.38;98.73;97638.34;5030889;28;20574;-79
2023/03/14 03:45:36;;;;;;;6.87;5.87;;;;;;;6.36;98.86;97655.59;5026116;28;20217;-80
2023/03/14 03:48:04;;;;;;;7.20;5.70;;;;;;;6.44;99.59;97649.88;5028754;28;20602;-79
2023/03/14 03:50:31;;;;;;;8.53;6.10;;;;;;;6.31;100.00;97645.66;5006770;28;20234;-79
2023/03/14 03:52:58;;;;;;;5.70;5.17;;;;;;;6.32;100.00;97649.13;4995683;28;20194;-77
2023/03/14 03:55:26;;;;;;;8.07;5.30;;;;;;;6.28;100.00;97663.97;5001243;28;20678;-81
2023/03/14 03:57:52;;;;;;;7.47;5.30;;;;;;;6.22;100.00;97656.94;5012384;28;20206;-78
2023/03/14 04:00:23;;;;;;;6.83;5.43;;;;;;;6.22;100.00;97660.41;5007539;28;20301;-79
2023/03/14 04:02:50;;;;;;;5.60;4.90;;;;;;;6.22;100.00;97659.59;5031442;28;20209;-79
2023/03/14 04:05:18;;;;;;;5.47;4.87;;;;;;;6.25;100.00;97648.50;5023318;28;20269;-81
2023/03/14 04:07:53;;;;;;;6.50;4.53;;;;;;;6.18;100.00;97657.41;5031124;28;20217;-79
2023/03/14 04:10:24;;;;;;;5.20;4.70;;;;;;;6.09;100.00;97664.16;4999078;28;20288;-79
2023/03/14 04:13:23;;;;;;;7.67;4.80;;;;;;;6.09;100.00;97658.84;5022599;28;20219;-78
2023/03/14 04:15:53;;;;;;;7.03;4.90;;;;;;;6.18;100.00;97656.59;5028740;28;20206;-79
2023/03/14 04:18:26;;;;;;;6.80;5.00;;;;;;;6.11;100.00;97670.03;5031357;28;20213;-82
2023/03/14 04:20:54;;;;;;;6.70;4.90;;;;;;;6.12;100.00;97669.00;5010850;28;20285;-79
2023/03/14 04:23:25;;;;;;;5.37;4.30;;;;;;;6.20;100.00;97686.44;5030377;28;20206;-79
2023/03/14 04:25:52;;;;;;;6.23;4.93;;;;;;;6.16;100.00;97688.75;5033456;28;20204;-78
2023/03/14 04:28:21;;;;;;;5.67;4.70;;;;;;;6.22;100.00;97696.81;5035100;28;20768;-80
2023/03/14 04:30:52;;;;;;;5.90;4.80;;;;;;;6.20;100.00;97705.06;5018543;28;20198;-79
2023/03/14 04:33:22;;;;;;;5.60;4.47;;;;;;;6.29;100.00;97703.63;5036514;28;20194;-79
2023/03/14 04:48:21;;;;;;;5.97;4.90;;;;;;;6.42;100.00;97700.66;5038503;28;20617;-79
2023/03/14 04:50:51;;;;;;;7.50;5.10;;;;;;;6.39;100.00;97689.69;5035956;28;20197;-81
2023/03/14 04:53:18;;;;;;;6.27;5.00;;;;;;;6.36;100.00;97685.66;5018845;28;20198;-81
2023/03/14 04:55:49;;;;;;;6.43;4.97;;;;;;;6.35;100.00;97715.94;5003149;28;20210;-80
2023/03/14 04:58:16;;;;;;;7.23;5.23;;;;;;;6.43;100.00;97723.56;5018432;28;20198;-79
2023/03/14 05:00:44;;;;;;;9.13;5.30;;;;;;;6.47;100.00;97707.91;5034257;28;20190;-81
2023/03/14 05:03:31;;;;;;;5.67;5.13;;;;;;;6.44;100.00;97714.50;5013186;28;20530;-78
2023/03/14 05:05:58;;;;;;;6.97;5.03;;;;;;;6.46;100.00;97714.28;5034964;28;20212;-79
2023/03/14 05:09:04;;;;;;;11.10;5.73;;;;;;;6.59;100.00;97690.84;5003432;28;20222;-79
2023/03/14 05:11:50;;;;;;;7.53;5.50;;;;;;;6.51;100.00;97704.53;5031404;28;20741;-80
2023/03/14 05:14:36;;;;;;;7.30;5.93;;;;;;;6.45;100.00;97724.09;5019094;28;20572;-79
2023/03/14 05:17:19;;;;;;;7.33;6.17;;;;;;;6.47;100.00;97729.19;5034476;28;20658;-78
2023/03/14 05:20:24;;;;;;;9.47;6.47;;;;;;;6.47;100.00;97731.88;4950507;29;20212;-80
2023/03/14 05:23:11;;;;;;;9.67;6.23;;;;;;;6.47;100.00;97740.66;4940898;29;20221;-78
2023/03/14 05:26:05;;;;;;;8.17;6.10;;;;;;;6.48;100.00;97749.44;4997627;28;20210;-78
2023/03/14 05:28:48;;;;;;;6.13;5.03;;;;;;;6.48;100.00;97736.97;5027272;28;20222;-78
2023/03/14 05:31:47;;;;;;;7.27;4.90;;;;;;;6.52;100.00;97734.63;5008562;28;20213;-79
2023/03/14 05:34:49;;;;;;;5.47;4.80;;;;;;;6.46;100.00;97727.59;5019107;28;20202;-80
2023/03/14 05:37:34;;;;;;;6.00;5.37;;;;;;;6.50;100.00;97720.72;5033598;28;20641;-79
2023/03/14 05:40:19;;;;;;;8.23;5.03;;;;;;;6.66;100.00;97722.63;5013870;28;20538;-80
2023/03/14 05:43:04;;;;;;;8.47;5.10;;;;;;;6.58;100.00;97731.78;5030031;28;20248;-81
2023/03/14 05:45:31;;;;;;;11.27;5.30;;;;;;;6.64;100.00;97738.00;5036408;28;20204;-79
2023/03/14 05:48:12;;;;;;;6.50;5.10;;;;;;;6.70;100.00;97755.69;5033222;28;20202;-81
2023/03/14 05:51:04;;;;;;;7.00;4.90;;;;;;;6.62;100.00;97775.50;5032916;28;20229;-80
2023/03/14 05:53:41;;;;;;;7.33;4.53;;;;;;;6.63;100.00;97766.47;5033692;28;20236;-80
2023/03/14 05:56:19;;;;;;;11.30;4.83;;;;;;;6.74;100.00;97766.66;5026839;28;20189;-80
2023/03/14 05:59:08;;;;;;;11.13;4.90;;;;;;;6.84;100.00;97775.63;5018434;28;20222;-82
2023/03/14 06:01:44;;;;;;;12.20;5.40;;;;;;;6.92;100.00;97779.75;5011338;28;20284;-80
2023/03/14 06:04:18;;;;;;;11.70;5.23;;;;;;;6.97;100.00;97770.00;5031279;28;20199;-81
2023/03/14 06:06:52;;;;;;;12.60;5.30;;;;;;;7.03;100.00;97771.69;5013316;28;20213;-79
2023/03/14 06:09:23;;;;;;;10.00;5.37;;;;;;;7.09;100.00;97777.91;5015791;28;20195;-81
2023/03/14 06:11:52;;;;;;;7.40;4.87;;;;;;;7.19;100.00;97783.38;5031727;28;20269;-78
2023/03/14 06:14:19;;;;;;;7.50;5.00;;;;;;;7.18;100.00;97776.47;5031902;28;20229;-79
2023/03/14 06:16:50;;;;;;;5.90;4.77;;;;;;;7.22;100.00;97798.09;5032633;28;20752;-78
2023/03/14 06:19:18;;;;;;;6.27;4.90;;;;;;;7.49;100.00;97799.03;5029243;28;20191;-80
2023/03/14 06:21:46;;;;;;;7.77;5.10;;;;;;;7.36;100.00;97802.84;5016188;28;20264;-78
2023/03/14 06:24:12;;;;;;;9.83;5.57;;;;;;;7.36;100.00;97796.72;5013099;28;20209;-80
2023/03/14 06:26:44;;;;;;;8.03;5.97;;;;;;;7.44;100.00;97794.44;5031575;28;20691;-78
2023/03/14 06:29:11;;;;;;;7.77;5.23;;;;;;;7.49;100.00;97793.69;5032013;28;20225;-79
2023/03/14 06:31:37;;;;;;;8.90;5.80;;;;;;;7.57;100.00;97790.63;5028353;28;20202;-79
2023/03/14 06:34:06;;;;;;;10.20;6.17;;;;;;;7.56;100.00;97796.22;5030370;28;20229;-80
2023/03/14 06:36:33;;;;;;;10.67;7.23;;;;;;;7.62;100.00;97814.69;5012761;28;20198;-81
2023/03/14 06:39:00;;;;;;;12.27;8.00;;;;;;;7.69;100.00;97810.00;5032552;28;20285;-79
2023/03/14 06:41:29;;;;;;;15.53;7.63;;;;;;;7.76;100.00;97801.81;5013269;28;20198;-79
2023/03/14 06:43:57;;;;;;;9.43;6.20;;;;;;;7.94;100.00;97793.53;5031510;28;20216;-80
2023/03/14 06:46:25;;;;;;;8.77;6.30;;;;;;;8.03;100.00;97789.38;4999314;28;20194;-81
2023/03/14 06:48:53;;;;;;;9.80;7.17;;;;;;;8.06;100.00;97780.91;5015713;28;20218;-79
2023/03/14 06:51:20;;;;;;;8.20;6.47;;;;;;;8.19;100.00;97798.38;5023817;28;20269;-79
2023/03/14 06:53:47;;;;;;;12.60;9.03;;;;;;;8.28;100.00;97794.22;5030650;28;20202;-80
2023/03/14 06:56:15;;;;;;;13.67;9.90;;;;;;;8.35;100.00;97793.00;5015479;28;20210;-79
2023/03/14 06:58:42;;;;;;;11.33;8.70;;;;;;;8.54;100.00;97796.13;5026528;28;20253;-80
2023/03/14 07:01:30;;;;;;;10.10;8.60;;;;;;;8.85;100.00;97783.94;5025251;28;20587;-78
2023/03/14 07:04:04;;;;;;;8.70;7.70;;;;;;;9.12;100.00;97789.22;5028639;28;20194;-80
2023/03/14 07:06:33;;;;;;;10.07;7.23;;;;;;;9.38;100.00;97791.03;5016705;28;20327;-81
2023/03/14 07:09:00;;;;;;;8.77;7.03;;;;;;;9.64;98.24;97784.81;5034966;28;20199;-81
2023/03/14 07:11:29;;;;;;;11.17;8.63;;;;;;;9.80;97.79;97798.28;5027300;28;20233;-79
2023/03/14 07:13:56;;;;;;;11.70;7.53;;;;;;;9.94;98.19;97808.25;5031195;28;20292;-78
2023/03/14 07:16:24;;;;;;;9.47;7.70;;;;;;;10.06;97.08;97813.41;5027106;28;20663;-79
2023/03/14 07:18:51;;;;;;;10.60;6.80;;;;;;;10.24;94.85;97817.53;5030329;28;20673;-78
2023/03/14 07:21:18;;;;;;;9.97;6.97;;;;;;;10.33;95.36;97813.28;5007326;28;20662;-78
2023/03/14 07:23:45;;;;;;;14.93;6.23;;;;;;;10.44;94.04;97812.25;5026475;28;20209;-80
2023/03/14 07:26:13;;;;;;;11.83;5.60;;;;;;;10.43;93.83;97811.47;5031470;28;20206;-78
2023/03/14 07:28:45;;;;;;;11.10;5.77;;;;;;;10.48;94.35;97802.63;5031322;28;20297;-79
2023/03/14 07:31:15;;;;;;;10.93;7.13;;;;;;;10.55;94.11;97811.22;5015292;28;20210;-79
2023/03/14 07:33:42;;;;;;;7.93;6.57;;;;;;;10.60;93.04;97828.09;5025761;28;20213;-80
2023/03/14 07:36:09;;;;;;;8.77;6.60;;;;;;;10.65;92.96;97832.66;5029578;28;20190;-79
2023/03/14 07:38:38;;;;;;;8.10;6.87;;;;;;;10.63;93.59;97836.69;5015105;28;20221;-78
2023/03/14 07:41:22;;;;;;;9.93;7.70;;;;;;;10.74;93.06;97846.34;5015891;28;20245;-77
2023/03/14 07:44:08;;;;;;;11.67;8.07;;;;;;;10.86;91.28;97828.19;5028966;28;20197;-79
2023/03/14 07:46:34;;;;;;;13.33;7.53;;;;;;;10.98;89.99;97834.09;5016365;28;20361;-78
2023/03/14 07:49:01;;;;;;;9.37;6.93;;;;;;;11.11;88.59;97830.09;5029333;28;20206;-79
2023/03/14 07:51:30;;;;;;;14.87;7.43;;;;;;;11.15;88.24;97840.00;5027666;28;20213;-79
2023/03/14 07:53:57;;;;;;;10.10;7.70;;;;;;;11.33;88.52;97825.31;5026284;28;20217;-80
2023/03/14 07:56:23;;;;;;;9.37;7.10;;;;;;;11.39;88.60;97824.22;5006678;28;20191;-77
2023/03/14 07:58:50;;;;;;;7.93;7.13;;;;;;;11.52;87.73;97823.69;5026327;28;20224;-79
2023/03/14 08:01:17;;;;;;;9.30;6.57;;;;;;;11.62;87.00;97815.63;4993858;28;20236;-79
2023/03/14 08:03:43;;;;;;;7.47;5.80;;;;;;;11.65;86.80;97823.16;5005355;28;20218;-79
2023/03/14 08:06:10;;;;;;;12.50;5.93;;;;;;;11.68;87.49;97821.78;5025990;28;20202;-79
2023/03/14 08:08:37;;;;;;;7.40;5.17;;;;;;;11.79;86.24;97808.13;5026414;28;20281;-78
2023/03/14 08:11:10;;;;;;;9.33;5.70;;;;;;;11.82;86.30;97802.22;5031457;28;20238;-78
2023/03/14 08:13:37;;;;;;;7.67;5.80;;;;;;;11.88;85.88;97803.00;5023798;28;20725;-79
2023/03/14 08:16:04;;;;;;;8.97;6.43;;;;;;;12.01;85.25;97789.00;5024450;28;20278;-79
2023/03/14 08:18:32;;;;;;;8.60;6.90;;;;;;;12.10;84.84;97789.25;5030400;28;20574;-79
2023/03/14 08:20:58;;;;;;;9.80;6.87;;;;;;;12.14;85.08;97779.56;5031678;28;20277;-78
2023/03/14 08:23:28;;;;;;;10.97;8.73;;;;;;;12.21;84.42;97783.59;5030663;28;20204;-79
2023/03/14 08:25:54;;;;;;;10.10;6.60;;;;;;;12.26;84.51;97783.56;5039091;28;20201;-78
2023/03/14 08:28:21;;;;;;;9.03;7.30;;;;;;;12.27;84.71;97781.69;5027415;28;20215;-79
2023/03/14 08:30:48;;;;;;;10.17;8.50;;;;;;;12.28;85.13;97776.03;5040824;28;20225;-78
2023/03/14 08:33:14;;;;;;;9.90;8.83;;;;;;;12.21;85.53;97778.22;5030189;28;20201;-77
2023/03/14 08:35:41;;;;;;;14.03;9.37;;;;;;;12.18;85.66;97780.63;5020622;28;20210;-78
2023/03/14 08:38:08;;;;;;;11.77;8.47;;;;;;;12.13;85.73;97789.50;5022710;28;20600;-78
2023/03/14 08:40:35;;;;;;;13.33;8.37;;;;;;;12.03;85.67;97786.88;5023660;28;20199;-79
2023/03/14 08:43:02;;;;;;;11.33;7.80;;;;;;;12.04;85.76;97782.31;5023256;28;20198;-78
2023/03/14 08:45:28;;;;;;;12.53;7.07;;;;;;;12.06;85.96;97788.19;5008742;28;20196;-80
2023/03/14 08:47:55;;;;;;;12.37;8.67;;;;;;;12.08;86.32;97770.75;5030924;28;20194;-78
2023/03/14 08:50:23;;;;;;;10.70;7.60;;;;;;;12.11;86.43;97772.06;5004121;28;20230;-79
2023/03/14 08:52:49;;;;;;;10.23;6.70;;;;;;;12.21;85.71;97772.84;5031577;28;20194;-78
2023/03/14 08:55:16;;;;;;;10.47;7.03;;;;;;;12.20;86.33;97773.91;5014169;28;20195;-78
2023/03/14 08:57:43;;;;;;;8.53;6.17;;;;;;;12.27;86.53;97769.03;5031263;28;20225;-79
2023/03/14 09:00:13;;;;;;;11.57;5.77;;;;;;;12.39;86.04;97770.63;5029807;28;20198;-78
2023/03/14 09:02:42;;;;;;;10.80;5.80;;;;;;;12.54;85.08;97768.66;5031711;28;20192;-78
2023/03/14 09:05:10;;;;;;;8.40;5.70;;;;;;;12.62;84.96;97770.75;5013374;28;20186;-78
2023/03/14 09:07:37;;;;;;;7.60;4.83;;;;;;;12.86;84.26;97764.72;5029315;28;20206;-78
2023/03/14 09:10:05;;;;;;;7.73;4.87;;;;;;;12.92;83.69;97761.72;5006666;28;20227;-79
2023/03/14 09:12:34;;;;;;;7.87;5.10;;;;;;;12.97;83.87;97768.94;5009513;28;20336;-78
2023/03/14 09:15:01;;;;;;;8.03;4.50;;;;;;;13.14;84.12;97769.38;5034792;28;20661;-79
2023/03/14 09:17:28;;;;;;;9.40;4.47;;;;;;;13.34;83.17;97755.78;5028120;28;20985;-78
2023/03/14 09:19:55;;;;;;;7.37;4.47;;;;;;;13.47;82.98;97747.03;5019941;28;20709;-78
2023/03/14 09:22:24;;;;;;;9.80;4.37;;;;;;;13.73;83.09;97749.47;5033165;28;20195;-78
2023/03/14 09:24:51;;;;;;;5.97;4.67;;;;;;;13.99;83.53;97745.44;5027934;28;20191;-79
2023/03/14 09:27:17;;;;;;;9.97;5.50;;;;;;;14.34;83.03;97747.69;5006247;28;20671;-78
2023/03/14 09:29:44;;;;;;;9.50;6.70;;;;;;;14.67;81.43;97748.59;5037950;28;20299;-78
2023/03/14 09:32:11;;;;;;;42.47;22.93;;;;;;;14.86;81.02;97756.69;5025936;28;20195;-78
2023/03/14 09:34:37;;;;;;;52.93;30.93;;;;;;;14.97;80.57;97750.06;5033358;28;20739;-78
2023/03/14 09:37:04;;;;;;;47.07;24.90;;;;;;;15.10;80.12;97751.22;5031361;28;20205;-78
2023/03/14 09:39:31;;;;;;;31.47;17.57;;;;;;;15.10;79.81;97745.81;5030646;28;20203;-79
2023/03/14 09:42:02;;;;;;;26.83;15.00;;;;;;;15.16;79.92;97752.75;5016137;28;20201;-79
2023/03/14 09:44:32;;;;;;;13.73;7.90;;;;;;;15.53;79.55;97733.78;5038243;28;20192;-79
2023/03/14 09:47:07;;;;;;;7.73;5.30;;;;;;;16.04;78.15;97733.63;5028059;28;20201;-79
2023/03/14 09:49:36;;;;;;;9.33;4.70;;;;;;;16.38;77.22;97733.19;5033532;28;20295;-79
2023/03/14 09:52:25;;;;;;;6.53;4.40;;;;;;;16.57;76.21;97747.38;5033486;28;20199;-79
2023/03/14 09:54:59;;;;;;;10.00;4.10;;;;;;;16.72;75.19;97738.16;5028099;28;20578;-79
2023/03/14 09:57:26;;;;;;;9.17;3.90;;;;;;;16.90;74.56;97739.09;5013789;28;20293;-80
2023/03/14 09:59:57;;;;;;;6.63;3.40;;;;;;;17.07;73.66;97733.84;5032252;28;20216;-78
2023/03/14 10:02:26;;;;;;;7.03;3.33;;;;;;;17.11;73.26;97722.09;5030044;28;20217;-78
2023/03/14 10:04:54;;;;;;;5.23;2.90;;;;;;;17.30;72.95;97727.31;5031356;28;20714;-79
2023/03/14 10:07:29;;;;;;;6.23;2.80;;;;;;;17.62;72.43;97733.59;5031585;28;20599;-78
2023/03/14 10:09:57;;;;;;;8.40;2.97;;;;;;;18.12;71.55;97734.91;5029871;28;20690;-79
2023/03/14 10:12:35;;;;;;;3.60;2.33;;;;;;;18.47;71.38;97733.09;5029247;28;20219;-79
2023/03/14 10:15:05;;;;;;;4.23;2.23;;;;;;;18.50;71.18;97729.75;5025608;28;20305;-79
2023/03/14 10:17:39;;;;;;;7.03;2.43;;;;;;;18.32;71.98;97728.91;5031441;28;20178;-79
2023/03/14 10:20:06;;;;;;;3.73;2.43;;;;;;;18.20;72.58;97730.63;5027439;28;20194;-78
2023/03/14 10:22:33;;;;;;;4.20;2.30;;;;;;;18.15;72.96;97718.00;5031540;28;20274;-78
2023/03/14 10:25:07;;;;;;;5.53;2.80;;;;;;;18.11;72.92;97727.09;5031206;28;20190;-78
2023/03/14 10:27:35;;;;;;;3.10;2.20;;;;;;;17.84;73.44;97733.53;5013493;28;20214;-79
2023/03/14 10:30:08;;;;;;;4.10;2.63;;;;;;;17.49;74.83;97738.75;5024997;28;20218;-79
2023/03/14 10:32:37;;;;;;;4.43;2.40;;;;;;;17.29;75.50;97731.13;5033057;28;20186;-78
2023/03/14 10:35:13;;;;;;;4.13;2.17;;;;;;;17.12;75.97;97725.59;5009229;28;20196;-78
2023/03/14 10:37:59;;;;;;;4.07;2.33;;;;;;;16.93;76.51;97725.78;5031298;28;20189;-79
2023/03/14 10:40:40;;;;;;;3.33;2.07;;;;;;;16.70;77.05;97722.22;5027222;28;20194;-79
2023/03/14 10:43:13;;;;;;;4.67;2.50;;;;;;;16.53;77.71;97713.94;5047562;28;20233;-79
2023/03/14 10:45:43;;;;;;;3.43;2.27;;;;;;;16.32;78.42;97729.00;5014979;28;20202;-78
2023/03/14 10:48:23;;;;;;;4.97;2.40;;;;;;;16.16;79.12;97722.31;5031886;28;20214;-79
2023/03/14 10:50:54;;;;;;;3.47;2.10;;;;;;;16.10;79.72;97718.09;5031760;28;20194;-79
2023/03/14 10:53:24;;;;;;;3.77;2.17;;;;;;;16.04;80.32;97714.72;5032907;28;20241;-78
2023/03/14 10:55:55;;;;;;;4.67;2.53;;;;;;;16.07;80.46;97707.91;5025675;28;20191;-80
2023/03/14 10:58:22;;;;;;;3.57;2.20;;;;;;;16.01;80.75;97711.81;5048113;28;20284;-79
2023/03/14 11:01:15;;;;;;;7.70;2.27;;;;;;;15.93;80.24;97715.22;5029369;28;20191;-79
2023/03/14 11:03:54;;;;;;;4.83;2.00;;;;;;;15.99;79.31;97717.53;5003982;28;20198;-79
2023/03/14 11:06:28;;;;;;;4.13;2.27;;;;;;;15.97;78.28;97721.63;5031145;28;20197;-79
2023/03/14 11:09:12;;;;;;;4.57;1.90;;;;;;;15.89;78.83;97722.31;5027933;28;20205;-78
2023/03/14 11:11:39;;;;;;;4.23;2.00;;;;;;;15.82;79.09;97720.81;5024720;28;20220;-79
2023/03/14 11:14:31;;;;;;;4.27;1.90;;;;;;;15.81;79.41;97718.44;5014848;28;20254;-79
2023/03/14 11:17:17;;;;;;;3.77;1.73;;;;;;;15.68;80.14;97720.00;5027687;28;20179;-79
2023/03/14 11:20:08;;;;;;;3.33;1.47;;;;;;;15.57;79.12;97744.78;5031687;28;20210;-79
2023/03/14 11:22:47;;;;;;;3.93;0.93;;;;;;;15.17;80.53;97721.94;5011941;28;20199;-79
2023/03/14 11:25:32;;;;;;;0.83;0.50;;;;;;;14.81;82.02;97748.69;5014980;28;20190;-79
2023/03/14 11:28:15;;;;;;;0.50;0.50;;;;;;;14.65;83.07;97758.09;5032657;28;20724;-78
2023/03/14 11:30:50;;;;;;;0.47;0.40;;;;;;;14.49;85.23;97744.81;5030870;28;20243;-79
2023/03/14 11:33:24;;;;;;;1.17;0.40;;;;;;;14.37;87.87;97757.91;5024082;28;20186;-79
2023/03/14 11:36:10;;;;;;;1.77;0.50;;;;;;;14.42;88.73;97754.34;5026241;28;20191;-80
2023/03/14 11:38:46;;;;;;;0.87;0.40;;;;;;;14.48;91.07;97761.25;5029226;28;20192;-79
2023/03/14 11:41:20;;;;;;;1.43;0.53;;;;;;;14.20;93.68;97765.63;5014153;28;20219;-76
2023/03/14 11:43:48;;;;;;;1.07;0.70;;;;;;;14.11;92.40;97752.00;5028898;28;20198;-79
2023/03/14 11:46:20;;;;;;;0.73;0.47;;;;;;;14.28;92.88;97743.44;5027152;28;20245;-79
2023/03/14 11:49:00;;;;;;;0.93;0.40;;;;;;;14.64;92.12;97743.81;5032646;28;20274;-80
2023/03/14 11:51:39;;;;;;;0.40;0.30;;;;;;;15.07;89.42;97751.81;5032724;28;20207;-80
2023/03/14 12:37:44;;;;;;;0.82;0.30;;;;;;;13.40;79.84;97735.00;5733390;22;15087952;-81
2023/03/14 12:40:21;;;;;;;0.30;0.30;;;;;;;13.29;78.10;97728.13;6342763;22;20217;-81
2023/03/14 12:43:00;;;;;;;1.60;0.20;;;;;;;13.10;78.24;97718.03;6345105;22;20143;-81
2023/03/14 12:45:52;;;;;;;0.33;0.30;;;;;;;13.32;77.63;97728.34;6371809;22;20154;-82
2023/03/14 12:48:33;;;;;;;2.00;1.50;;;;;;;13.20;78.14;97722.56;6349595;22;20159;-80
2023/03/14 12:51:11;;;;;;;0.53;0.50;;;;;;;13.01;79.16;97721.59;6342869;22;20241;-81
2023/03/14 12:53:48;;;;;;;0.93;0.20;;;;;;;13.08;78.72;97719.38;6319772;22;20159;-81
2023/03/14 12:56:21;;;;;;;0.30;0.20;;;;;;;13.06;78.01;97733.13;6370938;22;20174;-81
2023/03/14 12:59:30;;;;;;;0.30;0.20;;;;;;;13.08;78.09;97722.88;6369953;22;20186;-81